sensor_id;sensor_type;location;lat;lon;timestamp;temperature;humidity
9943;DHT22;5010;45.080;7.634;2023-03-01T00:01:55;20.50;1.00
9943;DHT22;5010;45.080;7.634;2023-03-01T00:04:22;20.50;1.00
9943;DHT22;5010;45.080;7.634;2023-03-01T00:06:49;20.50;1.00
9943;DHT22;5010;45.080;7.634;2023-03-01T00:09:16;20.40;1.00
9943;DHT22;5010;45.080;7.634;2023-03-01T00:11:45;20.40;1.00
9943;DHT22;5010;45.080;7.634;2023-03-01T00:14:12;20.40;1.00
9943;DHT22;5010;45.080;7.634;2023-03-01T00:16:41;20.40;1.00
9943;DHT22;5010;45.080;7.634;2023-03-01T00:19:11;20.30;1.00
9943;DHT22;5010;45.080;7.634;2023-03-01T00:21:38;20.30;1.00
9943;DHT22;5010;45.080;7.634;2023-03-01T00:24:05;20.30;1.00
9943;DHT22;5010;45.080;7.634;2023-03-01T00:26:32;20.30;1.00
9943;DHT22;5010;45.080;7.634;2023-03-01T00:29:01;20.20;1.00
9943;DHT22;5010;45.080;7.634;2023-03-01T00:31:30;20.20;1.00
9943;DHT22;5010;45.080;7.634;2023-03-01T00:33:59;20.20;1.00
9943;DHT22;5010;45.080;7.634;2023-03-01T00:36:30;20.20;1.00
9943;DHT22;5010;45.080;7.634;2023-03-01T00:38:57;20.20;1.00
9943;DHT22;5010;45.080;7.634;2023-03-01T00:41:24;20.10;1.00
9943;DHT22;5010;45.080;7.634;2023-03-01T00:43:53;20.10;1.00
9943;DHT22;5010;45.080;7.634;2023-03-01T00:46:22;20.10;1.00
9943;DHT22;5010;45.080;7.634;2023-03-01T00:48:50;20.10;1.00
9943;DHT22;5010;45.080;7.634;2023-03-01T00:51:19;20.00;1.00
9943;DHT22;5010;45.080;7.634;2023-03-01T00:53:49;20.00;1.00
9943;DHT22;5010;45.080;7.634;2023-03-01T00:56:16;20.00;1.00
9943;DHT22;5010;45.080;7.634;2023-03-01T00:58:43;20.00;1.00
9943;DHT22;5010;45.080;7.634;2023-03-01T01:01:11;20.00;1.00
9943;DHT22;5010;45.080;7.634;2023-03-01T01:03:46;20.00;1.00
9943;DHT22;5010;45.080;7.634;2023-03-01T01:06:14;19.90;1.00
9943;DHT22;5010;45.080;7.634;2023-03-01T01:08:41;19.90;1.00
9943;DHT22;5010;45.080;7.634;2023-03-01T01:11:09;19.90;1.00
9943;DHT22;5010;45.080;7.634;2023-03-01T01:13:36;19.90;1.00
9943;DHT22;5010;45.080;7.634;2023-03-01T01:16:04;19.90;1.00
9943;DHT22;5010;45.080;7.634;2023-03-01T01:18:31;19.90;1.00
9943;DHT22;5010;45.080;7.634;2023-03-01T01:21:03;19.80;1.00
9943;DHT22;5010;45.080;7.634;2023-03-01T01:23:30;19.80;1.00
9943;DHT22;5010;45.080;7.634;2023-03-01T01:25:57;19.80;1.00
9943;DHT22;5010;45.080;7.634;2023-03-01T01:28:24;19.80;1.00
9943;DHT22;5010;45.080;7.634;2023-03-01T01:30:50;19.80;1.00
9943;DHT22;5010;45.080;7.634;2023-03-01T01:33:17;19.80;1.00
9943;DHT22;5010;45.080;7.634;2023-03-01T01:35:45;19.80;1.00
9943;DHT22;5010;45.080;7.634;2023-03-01T01:38:13;19.70;1.00
9943;DHT22;5010;45.080;7.634;2023-03-01T01:40:43;19.70;1.00
9943;DHT22;5010;45.080;7.634;2023-03-01T01:43:18;19.70;1.00
9943;DHT22;5010;45.080;7.634;2023-03-01T01:45:45;19.70;1.00
9943;DHT22;5010;45.080;7.634;2023-03-01T01:48:14;19.70;1.00
9943;DHT22;5010;45.080;7.634;2023-03-01T01:50:43;19.70;1.00
9943;DHT22;5010;45.080;7.634;2023-03-01T01:53:14;19.70;1.00
9943;DHT22;5010;45.080;7.634;2023-03-01T01:55:46;19.60;1.00
9943;DHT22;5010;45.080;7.634;2023-03-01T01:58:17;19.60;1.00
9943;DHT22;5010;45.080;7.634;2023-03-01T02:00:44;19.60;1.00
9943;DHT22;5010;45.080;7.634;2023-03-01T02:03:13;19.60;1.00
9943;DHT22;5010;45.080;7.634;2023-03-01T02:05:46;19.60;1.00
9943;DHT22;5010;45.080;7.634;2023-03-01T02:08:18;19.60;1.00
9943;DHT22;5010;45.080;7.634;2023-03-01T02:10:46;19.60;1.00
9943;DHT22;5010;45.080;7.634;2023-03-01T02:13:14;19.60;1.00
9943;DHT22;5010;45.080;7.634;2023-03-01T02:15:41;19.60;1.00
9943;DHT22;5010;45.080;7.634;2023-03-01T02:18:10;19.50;1.00
9943;DHT22;5010;45.080;7.634;2023-03-01T02:20:44;19.50;1.00
9943;DHT22;5010;45.080;7.634;2023-03-01T02:23:16;19.50;1.00
9943;DHT22;5010;45.080;7.634;2023-03-01T02:25:48;19.50;1.00
9943;DHT22;5010;45.080;7.634;2023-03-01T02:28:24;19.50;1.00
9943;DHT22;5010;45.080;7.634;2023-03-01T02:30:51;19.50;1.00
9943;DHT22;5010;45.080;7.634;2023-03-01T02:33:38;19.50;1.00
9943;DHT22;5010;45.080;7.634;2023-03-01T02:36:09;19.50;1.00
9943;DHT22;5010;45.080;7.634;2023-03-01T02:38:39;19.50;1.00
9943;DHT22;5010;45.080;7.634;2023-03-01T02:41:07;19.40;1.00
9943;DHT22;5010;45.080;7.634;2023-03-01T02:43:36;19.40;1.00
9943;DHT22;5010;45.080;7.634;2023-03-01T02:46:07;19.40;1.00
9943;DHT22;5010;45.080;7.634;2023-03-01T02:48:42;19.40;1.00
9943;DHT22;5010;45.080;7.634;2023-03-01T02:51:26;19.40;1.00
9943;DHT22;5010;45.080;7.634;2023-03-01T02:54:01;19.40;1.00
9943;DHT22;5010;45.080;7.634;2023-03-01T02:56:32;19.40;1.00
9943;DHT22;5010;45.080;7.634;2023-03-01T02:59:02;19.40;1.00
9943;DHT22;5010;45.080;7.634;2023-03-01T03:01:29;19.40;1.00
9943;DHT22;5010;45.080;7.634;2023-03-01T03:04:03;19.40;1.00
9943;DHT22;5010;45.080;7.634;2023-03-01T03:06:30;19.30;1.00
9943;DHT22;5010;45.080;7.634;2023-03-01T03:08:57;19.30;1.00
9943;DHT22;5010;45.080;7.634;2023-03-01T03:11:24;19.30;1.00
9943;DHT22;5010;45.080;7.634;2023-03-01T03:13:51;19.30;1.00
9943;DHT22;5010;45.080;7.634;2023-03-01T03:16:19;19.30;1.00
9943;DHT22;5010;45.080;7.634;2023-03-01T03:18:47;19.30;1.00
9943;DHT22;5010;45.080;7.634;2023-03-01T03:21:14;19.30;1.00
9943;DHT22;5010;45.080;7.634;2023-03-01T03:23:42;19.30;1.00
9943;DHT22;5010;45.080;7.634;2023-03-01T03:26:09;19.30;1.00
9943;DHT22;5010;45.080;7.634;2023-03-01T03:28:40;19.30;1.00
9943;DHT22;5010;45.080;7.634;2023-03-01T03:31:08;19.30;1.00
9943;DHT22;5010;45.080;7.634;2023-03-01T03:33:36;19.30;1.00
9943;DHT22;5010;45.080;7.634;2023-03-01T03:36:03;19.30;1.00
9943;DHT22;5010;45.080;7.634;2023-03-01T03:38:31;19.30;1.00
9943;DHT22;5010;45.080;7.634;2023-03-01T03:41:02;19.30;1.00
9943;DHT22;5010;45.080;7.634;2023-03-01T03:43:31;19.20;1.00
9943;DHT22;5010;45.080;7.634;2023-03-01T03:45:58;19.20;1.00
9943;DHT22;5010;45.080;7.634;2023-03-01T03:48:26;19.20;1.00
9943;DHT22;5010;45.080;7.634;2023-03-01T03:50:56;19.20;1.00
9943;DHT22;5010;45.080;7.634;2023-03-01T03:53:25;19.20;1.00
9943;DHT22;5010;45.080;7.634;2023-03-01T03:55:53;19.20;1.00
9943;DHT22;5010;45.080;7.634;2023-03-01T03:58:21;19.20;1.00
9943;DHT22;5010;45.080;7.634;2023-03-01T04:00:50;19.20;1.00
9943;DHT22;5010;45.080;7.634;2023-03-01T04:03:18;19.10;1.00
9943;DHT22;5010;45.080;7.634;2023-03-01T04:05:46;19.20;1.00
9943;DHT22;5010;45.080;7.634;2023-03-01T04:08:17;19.10;1.00
9943;DHT22;5010;45.080;7.634;2023-03-01T04:10:47;19.10;1.00
9943;DHT22;5010;45.080;7.634;2023-03-01T04:13:17;19.10;1.00
9943;DHT22;5010;45.080;7.634;2023-03-01T04:15:45;19.10;1.00
9943;DHT22;5010;45.080;7.634;2023-03-01T04:18:13;19.10;1.00
9943;DHT22;5010;45.080;7.634;2023-03-01T04:20:41;19.10;1.00
9943;DHT22;5010;45.080;7.634;2023-03-01T04:23:10;19.20;1.00
9943;DHT22;5010;45.080;7.634;2023-03-01T04:25:41;19.10;1.00
9943;DHT22;5010;45.080;7.634;2023-03-01T04:28:09;19.10;1.00
9943;DHT22;5010;45.080;7.634;2023-03-01T04:30:36;19.10;1.00
9943;DHT22;5010;45.080;7.634;2023-03-01T04:33:04;19.10;1.00
9943;DHT22;5010;45.080;7.634;2023-03-01T04:35:31;19.10;1.00
9943;DHT22;5010;45.080;7.634;2023-03-01T04:37:58;19.10;1.00
9943;DHT22;5010;45.080;7.634;2023-03-01T04:40:25;19.20;1.00
9943;DHT22;5010;45.080;7.634;2023-03-01T04:42:53;19.20;1.00
9943;DHT22;5010;45.080;7.634;2023-03-01T04:45:20;19.20;1.00
9943;DHT22;5010;45.080;7.634;2023-03-01T04:47:47;19.20;1.00
9943;DHT22;5010;45.080;7.634;2023-03-01T04:50:16;19.20;1.00
9943;DHT22;5010;45.080;7.634;2023-03-01T04:52:46;19.20;1.00
9943;DHT22;5010;45.080;7.634;2023-03-01T04:55:13;19.20;1.00
9943;DHT22;5010;45.080;7.634;2023-03-01T04:57:40;19.30;1.00
9943;DHT22;5010;45.080;7.634;2023-03-01T05:00:11;19.30;1.00
9943;DHT22;5010;45.080;7.634;2023-03-01T05:02:48;19.30;1.00
9943;DHT22;5010;45.080;7.634;2023-03-01T05:05:19;19.30;1.00
9943;DHT22;5010;45.080;7.634;2023-03-01T05:07:46;19.30;1.00
9943;DHT22;5010;45.080;7.634;2023-03-01T05:10:13;19.30;1.00
9943;DHT22;5010;45.080;7.634;2023-03-01T05:12:40;19.30;1.00
9943;DHT22;5010;45.080;7.634;2023-03-01T05:15:09;19.30;1.00
9943;DHT22;5010;45.080;7.634;2023-03-01T05:17:36;19.30;1.00
9943;DHT22;5010;45.080;7.634;2023-03-01T05:20:04;19.40;1.00
9943;DHT22;5010;45.080;7.634;2023-03-01T05:22:34;19.40;1.00
9943;DHT22;5010;45.080;7.634;2023-03-01T05:25:01;19.40;1.00
9943;DHT22;5010;45.080;7.634;2023-03-01T05:27:28;19.40;1.00
9943;DHT22;5010;45.080;7.634;2023-03-01T05:29:55;19.40;1.00
9943;DHT22;5010;45.080;7.634;2023-03-01T05:32:23;19.40;1.00
9943;DHT22;5010;45.080;7.634;2023-03-01T05:34:50;19.40;1.00
9943;DHT22;5010;45.080;7.634;2023-03-01T05:37:17;19.40;1.00
9943;DHT22;5010;45.080;7.634;2023-03-01T05:39:45;19.40;1.00
9943;DHT22;5010;45.080;7.634;2023-03-01T05:42:11;19.50;1.00
9943;DHT22;5010;45.080;7.634;2023-03-01T05:44:38;19.50;1.00
9943;DHT22;5010;45.080;7.634;2023-03-01T05:47:06;19.50;1.00
9943;DHT22;5010;45.080;7.634;2023-03-01T05:49:34;19.50;1.00
9943;DHT22;5010;45.080;7.634;2023-03-01T05:52:01;19.50;1.00
9943;DHT22;5010;45.080;7.634;2023-03-01T05:54:27;19.50;1.00
9943;DHT22;5010;45.080;7.634;2023-03-01T05:56:54;19.50;1.00
9943;DHT22;5010;45.080;7.634;2023-03-01T05:59:21;19.50;1.00
9943;DHT22;5010;45.080;7.634;2023-03-01T06:01:48;19.50;1.00
9943;DHT22;5010;45.080;7.634;2023-03-01T06:04:15;19.60;1.00
9943;DHT22;5010;45.080;7.634;2023-03-01T06:06:43;19.60;1.00
9943;DHT22;5010;45.080;7.634;2023-03-01T06:09:10;19.50;1.00
9943;DHT22;5010;45.080;7.634;2023-03-01T06:11:37;19.60;1.00
9943;DHT22;5010;45.080;7.634;2023-03-01T06:14:06;19.60;1.00
9943;DHT22;5010;45.080;7.634;2023-03-01T06:16:33;19.60;1.00
9943;DHT22;5010;45.080;7.634;2023-03-01T06:19:00;19.60;1.00
9943;DHT22;5010;45.080;7.634;2023-03-01T06:21:27;19.60;1.00
9943;DHT22;5010;45.080;7.634;2023-03-01T06:23:55;19.60;1.00
9943;DHT22;5010;45.080;7.634;2023-03-01T06:26:22;19.60;1.00
9943;DHT22;5010;45.080;7.634;2023-03-01T06:28:50;19.60;1.00
9943;DHT22;5010;45.080;7.634;2023-03-01T06:31:17;19.60;1.00
9943;DHT22;5010;45.080;7.634;2023-03-01T06:33:44;19.60;1.00
9943;DHT22;5010;45.080;7.634;2023-03-01T06:36:11;19.60;1.00
9943;DHT22;5010;45.080;7.634;2023-03-01T06:38:38;19.70;1.00
9943;DHT22;5010;45.080;7.634;2023-03-01T06:41:07;19.70;1.00
9943;DHT22;5010;45.080;7.634;2023-03-01T06:43:34;19.70;1.00
9943;DHT22;5010;45.080;7.634;2023-03-01T06:46:04;19.70;1.00
9943;DHT22;5010;45.080;7.634;2023-03-01T06:48:32;19.70;1.00
9943;DHT22;5010;45.080;7.634;2023-03-01T06:50:59;19.70;1.00
9943;DHT22;5010;45.080;7.634;2023-03-01T06:53:27;19.70;1.00
9943;DHT22;5010;45.080;7.634;2023-03-01T06:55:55;19.70;1.00
9943;DHT22;5010;45.080;7.634;2023-03-01T06:58:23;19.80;1.00
9943;DHT22;5010;45.080;7.634;2023-03-01T07:00:50;19.80;1.00
9943;DHT22;5010;45.080;7.634;2023-03-01T07:03:18;19.80;1.00
9943;DHT22;5010;45.080;7.634;2023-03-01T07:05:45;19.80;1.00
9943;DHT22;5010;45.080;7.634;2023-03-01T07:08:12;19.80;1.00
9943;DHT22;5010;45.080;7.634;2023-03-01T07:10:38;19.80;1.00
9943;DHT22;5010;45.080;7.634;2023-03-01T07:13:05;19.80;1.00
9943;DHT22;5010;45.080;7.634;2023-03-01T07:15:35;19.80;1.00
9943;DHT22;5010;45.080;7.634;2023-03-01T07:18:01;19.80;1.00
9943;DHT22;5010;45.080;7.634;2023-03-01T07:20:28;19.80;1.00
9943;DHT22;5010;45.080;7.634;2023-03-01T07:22:56;19.80;1.00
9943;DHT22;5010;45.080;7.634;2023-03-01T07:25:24;19.80;1.00
9943;DHT22;5010;45.080;7.634;2023-03-01T07:27:51;19.80;1.00
9943;DHT22;5010;45.080;7.634;2023-03-01T07:30:19;19.80;1.00
9943;DHT22;5010;45.080;7.634;2023-03-01T07:32:47;19.80;1.00
9943;DHT22;5010;45.080;7.634;2023-03-01T07:35:14;19.90;1.00
9943;DHT22;5010;45.080;7.634;2023-03-01T07:37:41;19.80;1.00
9943;DHT22;5010;45.080;7.634;2023-03-01T07:40:09;19.90;1.00
9943;DHT22;5010;45.080;7.634;2023-03-01T07:42:36;19.90;1.00
9943;DHT22;5010;45.080;7.634;2023-03-01T07:45:04;19.80;1.00
9943;DHT22;5010;45.080;7.634;2023-03-01T07:47:32;19.80;1.00
9943;DHT22;5010;45.080;7.634;2023-03-01T07:50:00;19.90;1.00
9943;DHT22;5010;45.080;7.634;2023-03-01T07:52:28;19.90;1.00
9943;DHT22;5010;45.080;7.634;2023-03-01T07:54:55;19.80;1.00
9943;DHT22;5010;45.080;7.634;2023-03-01T07:57:22;19.90;1.00
9943;DHT22;5010;45.080;7.634;2023-03-01T07:59:48;19.90;1.00
9943;DHT22;5010;45.080;7.634;2023-03-01T08:02:15;19.90;1.00
9943;DHT22;5010;45.080;7.634;2023-03-01T08:04:42;19.90;1.00
9943;DHT22;5010;45.080;7.634;2023-03-01T08:07:10;19.90;1.00
9943;DHT22;5010;45.080;7.634;2023-03-01T08:09:37;19.90;1.00
9943;DHT22;5010;45.080;7.634;2023-03-01T08:12:05;19.80;1.00
9943;DHT22;5010;45.080;7.634;2023-03-01T08:14:32;19.90;1.00
9943;DHT22;5010;45.080;7.634;2023-03-01T08:16:59;19.90;1.00
9943;DHT22;5010;45.080;7.634;2023-03-01T08:19:28;19.90;1.00
9943;DHT22;5010;45.080;7.634;2023-03-01T08:21:55;19.90;1.00
9943;DHT22;5010;45.080;7.634;2023-03-01T08:24:25;19.90;1.00
9943;DHT22;5010;45.080;7.634;2023-03-01T08:26:52;19.90;1.00
9943;DHT22;5010;45.080;7.634;2023-03-01T08:29:19;19.90;1.00
9943;DHT22;5010;45.080;7.634;2023-03-01T08:31:45;19.80;1.00
9943;DHT22;5010;45.080;7.634;2023-03-01T08:34:14;19.80;1.00
9943;DHT22;5010;45.080;7.634;2023-03-01T08:36:43;19.80;1.00
9943;DHT22;5010;45.080;7.634;2023-03-01T08:39:13;19.80;1.00
9943;DHT22;5010;45.080;7.634;2023-03-01T08:41:42;19.80;1.00
9943;DHT22;5010;45.080;7.634;2023-03-01T08:44:09;19.80;1.00
9943;DHT22;5010;45.080;7.634;2023-03-01T08:46:39;19.80;1.00
9943;DHT22;5010;45.080;7.634;2023-03-01T08:49:08;19.80;1.00
9943;DHT22;5010;45.080;7.634;2023-03-01T08:51:35;19.80;1.00
9943;DHT22;5010;45.080;7.634;2023-03-01T08:54:03;19.80;1.00
9943;DHT22;5010;45.080;7.634;2023-03-01T08:56:30;19.80;1.00
9943;DHT22;5010;45.080;7.634;2023-03-01T08:58:59;19.80;1.00
9943;DHT22;5010;45.080;7.634;2023-03-01T09:01:26;19.80;1.00
9943;DHT22;5010;45.080;7.634;2023-03-01T09:03:53;19.80;1.00
9943;DHT22;5010;45.080;7.634;2023-03-01T09:06:20;19.80;1.00
9943;DHT22;5010;45.080;7.634;2023-03-01T09:08:48;19.80;1.00
9943;DHT22;5010;45.080;7.634;2023-03-01T09:11:17;19.80;1.00
9943;DHT22;5010;45.080;7.634;2023-03-01T09:13:45;19.80;1.00
9943;DHT22;5010;45.080;7.634;2023-03-01T09:16:17;19.80;1.00
9943;DHT22;5010;45.080;7.634;2023-03-01T09:18:45;19.80;1.00
9943;DHT22;5010;45.080;7.634;2023-03-01T09:21:16;19.80;1.00
9943;DHT22;5010;45.080;7.634;2023-03-01T09:23:45;19.70;1.00
9943;DHT22;5010;45.080;7.634;2023-03-01T09:26:14;19.80;1.00
9943;DHT22;5010;45.080;7.634;2023-03-01T09:28:42;19.70;1.00
9943;DHT22;5010;45.080;7.634;2023-03-01T09:31:10;19.70;1.00
9943;DHT22;5010;45.080;7.634;2023-03-01T09:33:40;19.70;1.00
9943;DHT22;5010;45.080;7.634;2023-03-01T09:36:10;19.70;1.00
9943;DHT22;5010;45.080;7.634;2023-03-01T09:38:37;19.70;1.00
9943;DHT22;5010;45.080;7.634;2023-03-01T09:41:10;19.70;1.00
9943;DHT22;5010;45.080;7.634;2023-03-01T09:43:43;19.70;1.00
9943;DHT22;5010;45.080;7.634;2023-03-01T09:46:13;19.70;1.00
9943;DHT22;5010;45.080;7.634;2023-03-01T09:48:46;19.70;1.00
9943;DHT22;5010;45.080;7.634;2023-03-01T09:51:18;19.60;1.00
9943;DHT22;5010;45.080;7.634;2023-03-01T09:53:46;19.60;1.00
9943;DHT22;5010;45.080;7.634;2023-03-01T09:56:17;19.60;1.00
9943;DHT22;5010;45.080;7.634;2023-03-01T09:58:50;19.60;1.00
9943;DHT22;5010;45.080;7.634;2023-03-01T10:01:28;19.60;1.00
9943;DHT22;5010;45.080;7.634;2023-03-01T10:04:09;19.60;1.00
9943;DHT22;5010;45.080;7.634;2023-03-01T10:06:39;19.70;1.00
9943;DHT22;5010;45.080;7.634;2023-03-01T10:09:13;19.60;1.00
9943;DHT22;5010;45.080;7.634;2023-03-01T10:11:45;19.60;1.00
9943;DHT22;5010;45.080;7.634;2023-03-01T10:14:19;19.60;1.00
9943;DHT22;5010;45.080;7.634;2023-03-01T10:16:54;19.60;1.00
9943;DHT22;5010;45.080;7.634;2023-03-01T10:19:30;19.60;1.00
9943;DHT22;5010;45.080;7.634;2023-03-01T10:22:00;19.60;1.00
9943;DHT22;5010;45.080;7.634;2023-03-01T10:24:33;19.60;1.00
9943;DHT22;5010;45.080;7.634;2023-03-01T10:27:05;19.60;1.00
9943;DHT22;5010;45.080;7.634;2023-03-01T10:29:39;19.60;1.00
9943;DHT22;5010;45.080;7.634;2023-03-01T10:32:08;19.60;1.00
9943;DHT22;5010;45.080;7.634;2023-03-01T10:34:37;19.60;1.00
9943;DHT22;5010;45.080;7.634;2023-03-01T10:37:10;19.60;1.00
9943;DHT22;5010;45.080;7.634;2023-03-01T10:39:54;19.60;1.00
9943;DHT22;5010;45.080;7.634;2023-03-01T10:42:26;19.50;1.00
9943;DHT22;5010;45.080;7.634;2023-03-01T10:44:54;19.50;1.00
9943;DHT22;5010;45.080;7.634;2023-03-01T10:47:23;19.50;1.00
9943;DHT22;5010;45.080;7.634;2023-03-01T10:49:57;19.50;1.00
9943;DHT22;5010;45.080;7.634;2023-03-01T10:52:27;19.50;1.00
9943;DHT22;5010;45.080;7.634;2023-03-01T10:54:57;19.50;1.00
9943;DHT22;5010;45.080;7.634;2023-03-01T10:57:35;19.50;1.00
9943;DHT22;5010;45.080;7.634;2023-03-01T11:00:24;19.50;1.00
9943;DHT22;5010;45.080;7.634;2023-03-01T11:03:03;19.50;1.00
9943;DHT22;5010;45.080;7.634;2023-03-01T11:05:37;19.50;1.00
9943;DHT22;5010;45.080;7.634;2023-03-01T11:08:33;19.50;1.00
9943;DHT22;5010;45.080;7.634;2023-03-01T11:11:22;19.50;1.00
9943;DHT22;5010;45.080;7.634;2023-03-01T11:13:56;19.50;1.00
9943;DHT22;5010;45.080;7.634;2023-03-01T11:16:25;19.50;1.00
9943;DHT22;5010;45.080;7.634;2023-03-01T11:18:57;19.50;1.00
9943;DHT22;5010;45.080;7.634;2023-03-01T11:21:30;19.50;1.00
9943;DHT22;5010;45.080;7.634;2023-03-01T11:24:00;19.50;1.00
9943;DHT22;5010;45.080;7.634;2023-03-01T11:26:29;19.50;1.00
9943;DHT22;5010;45.080;7.634;2023-03-01T11:29:02;19.40;1.00
9943;DHT22;5010;45.080;7.634;2023-03-01T11:31:31;19.40;1.00
9943;DHT22;5010;45.080;7.634;2023-03-01T11:34:03;19.40;1.00
9943;DHT22;5010;45.080;7.634;2023-03-01T11:36:35;19.40;1.00
9943;DHT22;5010;45.080;7.634;2023-03-01T11:39:16;19.40;1.00
9943;DHT22;5010;45.080;7.634;2023-03-01T11:41:46;19.40;1.00
9943;DHT22;5010;45.080;7.634;2023-03-01T11:44:21;19.40;1.00
9943;DHT22;5010;45.080;7.634;2023-03-01T11:50:07;19.40;1.00
9943;DHT22;5010;45.080;7.634;2023-03-01T11:52:46;19.40;1.00
9943;DHT22;5010;45.080;7.634;2023-03-01T11:55:25;19.40;1.00
9943;DHT22;5010;45.080;7.634;2023-03-01T11:58:14;19.40;1.00
9943;DHT22;5010;45.080;7.634;2023-03-01T12:03:52;19.40;1.00
9943;DHT22;5010;45.080;7.634;2023-03-01T12:06:42;19.40;1.00
9943;DHT22;5010;45.080;7.634;2023-03-01T12:09:31;19.40;1.00
9943;DHT22;5010;45.080;7.634;2023-03-01T12:12:24;19.40;1.00
9943;DHT22;5010;45.080;7.634;2023-03-01T12:18:30;19.30;1.00
9943;DHT22;5010;45.080;7.634;2023-03-01T12:21:06;19.30;1.00
9943;DHT22;5010;45.080;7.634;2023-03-01T12:26:51;19.30;1.00
9943;DHT22;5010;45.080;7.634;2023-03-01T12:29:34;19.30;1.00
9943;DHT22;5010;45.080;7.634;2023-03-01T12:32:15;19.30;1.00
9943;DHT22;5010;45.080;7.634;2023-03-01T12:34:55;19.30;1.00
9943;DHT22;5010;45.080;7.634;2023-03-01T12:37:33;19.30;1.00
9943;DHT22;5010;45.080;7.634;2023-03-01T12:40:14;19.30;1.00
9943;DHT22;5010;45.080;7.634;2023-03-01T12:42:50;19.30;1.00
9943;DHT22;5010;45.080;7.634;2023-03-01T12:45:34;19.30;1.00
9943;DHT22;5010;45.080;7.634;2023-03-01T12:48:26;19.30;1.00
9943;DHT22;5010;45.080;7.634;2023-03-01T12:50:59;19.30;1.00
9943;DHT22;5010;45.080;7.634;2023-03-01T12:53:31;19.30;1.00
9943;DHT22;5010;45.080;7.634;2023-03-01T12:56:01;19.30;1.00
9943;DHT22;5010;45.080;7.634;2023-03-01T12:58:32;19.30;1.00
9943;DHT22;5010;45.080;7.634;2023-03-01T13:01:10;19.30;1.00
9943;DHT22;5010;45.080;7.634;2023-03-01T13:03:55;19.30;1.00
9943;DHT22;5010;45.080;7.634;2023-03-01T13:06:32;19.30;1.00
9943;DHT22;5010;45.080;7.634;2023-03-01T13:09:07;19.40;1.00
9943;DHT22;5010;45.080;7.634;2023-03-01T13:11:41;19.30;1.00
9943;DHT22;5010;45.080;7.634;2023-03-01T13:14:35;19.40;1.00
9943;DHT22;5010;45.080;7.634;2023-03-01T13:17:03;19.40;1.00
9943;DHT22;5010;45.080;7.634;2023-03-01T13:19:30;19.40;1.00
9943;DHT22;5010;45.080;7.634;2023-03-01T13:21:58;19.40;1.00
9943;DHT22;5010;45.080;7.634;2023-03-01T13:24:33;19.40;1.00
9943;DHT22;5010;45.080;7.634;2023-03-01T13:27:21;19.40;1.00
9943;DHT22;5010;45.080;7.634;2023-03-01T13:29:52;19.40;1.00
9943;DHT22;5010;45.080;7.634;2023-03-01T13:32:22;19.40;1.00
9943;DHT22;5010;45.080;7.634;2023-03-01T13:34:57;19.40;1.00
9943;DHT22;5010;45.080;7.634;2023-03-01T13:37:30;19.40;1.00
9943;DHT22;5010;45.080;7.634;2023-03-01T13:40:00;19.40;1.00
9943;DHT22;5010;45.080;7.634;2023-03-01T13:42:39;19.40;1.00
9943;DHT22;5010;45.080;7.634;2023-03-01T13:45:24;19.40;1.00
9943;DHT22;5010;45.080;7.634;2023-03-01T13:47:56;19.40;1.00
9943;DHT22;5010;45.080;7.634;2023-03-01T13:50:27;19.40;1.00
9943;DHT22;5010;45.080;7.634;2023-03-01T13:52:56;19.40;1.00
9943;DHT22;5010;45.080;7.634;2023-03-01T13:55:30;19.40;1.00
9943;DHT22;5010;45.080;7.634;2023-03-01T13:58:03;19.40;1.00
9943;DHT22;5010;45.080;7.634;2023-03-01T14:00:36;19.40;1.00
9943;DHT22;5010;45.080;7.634;2023-03-01T14:03:12;19.40;1.00
9943;DHT22;5010;45.080;7.634;2023-03-01T14:05:42;19.40;1.00
9943;DHT22;5010;45.080;7.634;2023-03-01T14:08:21;19.40;1.00
9943;DHT22;5010;45.080;7.634;2023-03-01T14:10:57;19.40;1.00
9943;DHT22;5010;45.080;7.634;2023-03-01T14:13:38;19.40;1.00
9943;DHT22;5010;45.080;7.634;2023-03-01T14:16:23;19.40;1.00
9943;DHT22;5010;45.080;7.634;2023-03-01T14:19:00;19.40;1.00
9943;DHT22;5010;45.080;7.634;2023-03-01T14:21:30;19.30;1.00
9943;DHT22;5010;45.080;7.634;2023-03-01T14:23:58;19.30;1.00
9943;DHT22;5010;45.080;7.634;2023-03-01T14:26:25;19.30;1.00
9943;DHT22;5010;45.080;7.634;2023-03-01T14:28:52;19.30;1.00
9943;DHT22;5010;45.080;7.634;2023-03-01T14:31:32;19.30;1.00
9943;DHT22;5010;45.080;7.634;2023-03-01T14:34:00;19.30;1.00
9943;DHT22;5010;45.080;7.634;2023-03-01T14:36:29;19.30;1.00
9943;DHT22;5010;45.080;7.634;2023-03-01T14:38:56;19.30;1.00
9943;DHT22;5010;45.080;7.634;2023-03-01T14:41:32;19.30;1.00
9943;DHT22;5010;45.080;7.634;2023-03-01T14:44:02;19.30;1.00
9943;DHT22;5010;45.080;7.634;2023-03-01T14:46:34;19.30;1.00
9943;DHT22;5010;45.080;7.634;2023-03-01T14:49:04;19.30;1.00
9943;DHT22;5010;45.080;7.634;2023-03-01T14:51:36;19.30;1.00
9943;DHT22;5010;45.080;7.634;2023-03-01T14:54:05;19.30;1.00
9943;DHT22;5010;45.080;7.634;2023-03-01T14:56:44;19.30;1.00
9943;DHT22;5010;45.080;7.634;2023-03-01T14:59:11;19.30;1.00
9943;DHT22;5010;45.080;7.634;2023-03-01T15:01:40;19.20;1.00
9943;DHT22;5010;45.080;7.634;2023-03-01T15:04:11;19.20;1.00
9943;DHT22;5010;45.080;7.634;2023-03-01T15:06:39;19.20;1.00
9943;DHT22;5010;45.080;7.634;2023-03-01T15:09:06;19.20;1.00
9943;DHT22;5010;45.080;7.634;2023-03-01T15:11:34;19.20;1.00
9943;DHT22;5010;45.080;7.634;2023-03-01T15:14:27;19.20;1.00
9943;DHT22;5010;45.080;7.634;2023-03-01T15:16:55;19.20;1.00
9943;DHT22;5010;45.080;7.634;2023-03-01T15:19:24;19.10;1.00
9943;DHT22;5010;45.080;7.634;2023-03-01T15:21:54;19.10;1.00
9943;DHT22;5010;45.080;7.634;2023-03-01T15:24:25;19.10;1.00
9943;DHT22;5010;45.080;7.634;2023-03-01T15:26:55;19.10;1.00
9943;DHT22;5010;45.080;7.634;2023-03-01T15:29:25;19.10;1.00
9943;DHT22;5010;45.080;7.634;2023-03-01T15:31:58;19.10;1.00
9943;DHT22;5010;45.080;7.634;2023-03-01T15:34:27;19.10;1.00
9943;DHT22;5010;45.080;7.634;2023-03-01T15:36:55;19.10;1.00
9943;DHT22;5010;45.080;7.634;2023-03-01T15:39:36;19.00;1.00
9943;DHT22;5010;45.080;7.634;2023-03-01T15:42:10;19.00;1.00
9943;DHT22;5010;45.080;7.634;2023-03-01T15:44:38;19.00;1.00
9943;DHT22;5010;45.080;7.634;2023-03-01T15:47:23;19.00;1.00
9943;DHT22;5010;45.080;7.634;2023-03-01T15:49:52;19.00;1.00
9943;DHT22;5010;45.080;7.634;2023-03-01T15:52:22;19.00;1.00
9943;DHT22;5010;45.080;7.634;2023-03-01T15:54:55;19.00;1.00
9943;DHT22;5010;45.080;7.634;2023-03-01T15:57:21;19.00;1.00
9943;DHT22;5010;45.080;7.634;2023-03-01T15:59:48;19.00;1.00
9943;DHT22;5010;45.080;7.634;2023-03-01T16:02:17;18.90;1.00
9943;DHT22;5010;45.080;7.634;2023-03-01T16:04:46;19.00;1.00
9943;DHT22;5010;45.080;7.634;2023-03-01T16:07:14;19.00;1.00
9943;DHT22;5010;45.080;7.634;2023-03-01T16:09:40;19.00;1.00
9943;DHT22;5010;45.080;7.634;2023-03-01T16:12:13;18.90;1.00
9943;DHT22;5010;45.080;7.634;2023-03-01T16:14:41;18.90;1.00
9943;DHT22;5010;45.080;7.634;2023-03-01T16:17:08;18.90;1.00
9943;DHT22;5010;45.080;7.634;2023-03-01T16:19:36;18.90;1.00
9943;DHT22;5010;45.080;7.634;2023-03-01T16:22:04;18.90;1.00
9943;DHT22;5010;45.080;7.634;2023-03-01T16:24:31;18.90;1.00
9943;DHT22;5010;45.080;7.634;2023-03-01T16:26:57;18.90;1.00
9943;DHT22;5010;45.080;7.634;2023-03-01T16:29:24;18.90;1.00
9943;DHT22;5010;45.080;7.634;2023-03-01T16:31:51;18.90;1.00
9943;DHT22;5010;45.080;7.634;2023-03-01T16:34:18;18.90;1.00
9943;DHT22;5010;45.080;7.634;2023-03-01T16:36:49;18.90;1.00
9943;DHT22;5010;45.080;7.634;2023-03-01T16:39:16;18.90;1.00
9943;DHT22;5010;45.080;7.634;2023-03-01T16:41:43;18.90;1.00
9943;DHT22;5010;45.080;7.634;2023-03-01T16:44:09;18.90;1.00
9943;DHT22;5010;45.080;7.634;2023-03-01T16:46:36;18.90;1.00
9943;DHT22;5010;45.080;7.634;2023-03-01T16:49:03;18.90;1.00
9943;DHT22;5010;45.080;7.634;2023-03-01T16:51:30;18.80;1.00